This is the latest recevied weather packets stored in our database for station/object HR1LRC-21. If no packets are shown the sender has not sent any weather packets the latest 10 day(s).
| Time | Temp. | Humidity | Pressure | Rain* | Wind** | Luminosity | Snow |
|---|---|---|---|---|---|---|---|
| 1777752953 | 27.22° C | 39% | 1008 hPa | 0 mm | - | - | - |
| 1777752352 | 27.22° C | 39% | 1008 hPa | 0 mm | - | - | - |
| 1777751752 | 26.67° C | 38% | 1008 hPa | 0 mm | - | - | - |
| 1777751151 | 26.67° C | 39% | 1008 hPa | 0 mm | - | - | - |
| 1777750550 | 26.67° C | 39% | 1008 hPa | 0 mm | - | - | - |
| 1777749950 | 26.67° C | 41% | 1009 hPa | 0 mm | - | - | - |
| 1777749349 | 26.67° C | 40% | 1009 hPa | 0 mm | - | - | - |
| 1777748748 | 26.67° C | 40% | 1009 hPa | 0 mm | - | - | - |
| 1777748148 | 26.67° C | 39% | 1009 hPa | 0 mm | - | - | - |
| 1777747547 | 26.11° C | 41% | 1010 hPa | 0 mm | - | - | - |
| 1777746947 | 26.11° C | 41% | 1010 hPa | 0 mm | - | - | - |
| 1777746346 | 25.56° C | 44% | 1011 hPa | 0 mm | - | - | - |
| 1777745745 | 25.56° C | 44% | 1011 hPa | 0 mm | - | - | - |
| 1777745145 | 25.56° C | 44% | 1011 hPa | 0 mm | - | - | - |
| 1777744544 | 25.56° C | 43% | 1011 hPa | 0 mm | - | - | - |
| 1777743943 | 25.56° C | 45% | 1011 hPa | 0 mm | - | - | - |
| 1777743343 | 25.56° C | 45% | 1011 hPa | 0 mm | - | - | - |
| 1777742742 | 25° C | 50% | 1013 hPa | 0 mm | - | - | - |
| 1777742142 | 24.44° C | 50% | 1012 hPa | 0 mm | - | - | - |
| 1777741541 | 24.44° C | 50% | 1012 hPa | 0 mm | - | - | - |
| 1777740940 | 24.44° C | 49% | 1012 hPa | 0 mm | - | - | - |
| 1777740338 | 24.44° C | 51% | 1013 hPa | 0 mm | - | - | - |
| 1777739737 | 24.44° C | 51% | 1013 hPa | 0 mm | - | - | - |
| 1777739137 | 23.33° C | 56% | 1014 hPa | 0 mm | - | - | - |
| 1777738536 | 22.78° C | 56% | 1013 hPa | 0 mm | - | - | - |
* Rain latest hour (hover to see other rain measurements)
** Current wind speed in m/s (hover to see current wind gust speed)